sensor_id;sensor_type;location;lat;lon;timestamp;P1;durP1;ratioP1;P2;durP2;ratioP2
7971;SDS011;4031;49.758;6.120;2023-09-30T00:01:11;106.07;;;15.23;;
7971;SDS011;4031;49.758;6.120;2023-09-30T00:03:36;64.27;;;13.23;;
7971;SDS011;4031;49.758;6.120;2023-09-30T00:06:03;58.07;;;13.40;;
7971;SDS011;4031;49.758;6.120;2023-09-30T00:08:29;63.30;;;11.10;;
7971;SDS011;4031;49.758;6.120;2023-09-30T00:10:55;52.17;;;10.43;;
7971;SDS011;4031;49.758;6.120;2023-09-30T00:13:20;44.77;;;11.17;;
7971;SDS011;4031;49.758;6.120;2023-09-30T00:15:46;59.70;;;10.43;;
7971;SDS011;4031;49.758;6.120;2023-09-30T00:18:12;43.03;;;12.63;;
7971;SDS011;4031;49.758;6.120;2023-09-30T00:20:38;43.83;;;13.20;;
7971;SDS011;4031;49.758;6.120;2023-09-30T00:23:04;40.17;;;10.47;;
7971;SDS011;4031;49.758;6.120;2023-09-30T00:25:32;28.27;;;8.70;;
7971;SDS011;4031;49.758;6.120;2023-09-30T00:27:58;28.93;;;8.07;;
7971;SDS011;4031;49.758;6.120;2023-09-30T00:30:24;25.73;;;8.50;;
7971;SDS011;4031;49.758;6.120;2023-09-30T00:32:49;36.93;;;9.57;;
7971;SDS011;4031;49.758;6.120;2023-09-30T00:35:15;48.37;;;10.90;;
7971;SDS011;4031;49.758;6.120;2023-09-30T00:37:41;49.73;;;10.60;;
7971;SDS011;4031;49.758;6.120;2023-09-30T00:40:07;40.17;;;9.83;;
7971;SDS011;4031;49.758;6.120;2023-09-30T00:42:40;34.57;;;10.00;;
7971;SDS011;4031;49.758;6.120;2023-09-30T00:45:06;34.37;;;11.37;;
7971;SDS011;4031;49.758;6.120;2023-09-30T00:47:36;58.67;;;12.70;;
7971;SDS011;4031;49.758;6.120;2023-09-30T00:50:03;52.20;;;10.13;;
7971;SDS011;4031;49.758;6.120;2023-09-30T00:52:32;55.60;;;12.50;;
7971;SDS011;4031;49.758;6.120;2023-09-30T00:55:00;63.63;;;12.50;;
7971;SDS011;4031;49.758;6.120;2023-09-30T00:57:27;50.87;;;10.17;;
7971;SDS011;4031;49.758;6.120;2023-09-30T00:59:55;28.70;;;8.63;;
7971;SDS011;4031;49.758;6.120;2023-09-30T01:02:22;54.10;;;10.27;;
7971;SDS011;4031;49.758;6.120;2023-09-30T01:04:48;29.50;;;9.67;;
7971;SDS011;4031;49.758;6.120;2023-09-30T01:07:15;31.13;;;8.97;;
7971;SDS011;4031;49.758;6.120;2023-09-30T01:09:41;32.13;;;9.57;;
7971;SDS011;4031;49.758;6.120;2023-09-30T01:12:07;30.43;;;8.10;;
7971;SDS011;4031;49.758;6.120;2023-09-30T01:14:34;37.77;;;11.43;;
7971;SDS011;4031;49.758;6.120;2023-09-30T01:17:03;42.37;;;10.27;;
7971;SDS011;4031;49.758;6.120;2023-09-30T01:19:29;18.53;;;7.77;;
7971;SDS011;4031;49.758;6.120;2023-09-30T01:21:55;16.90;;;8.10;;
7971;SDS011;4031;49.758;6.120;2023-09-30T01:24:28;19.03;;;7.70;;
7971;SDS011;4031;49.758;6.120;2023-09-30T01:26:55;25.33;;;8.07;;
7971;SDS011;4031;49.758;6.120;2023-09-30T01:29:21;24.27;;;8.53;;
7971;SDS011;4031;49.758;6.120;2023-09-30T01:31:47;25.10;;;8.73;;
7971;SDS011;4031;49.758;6.120;2023-09-30T01:34:16;30.90;;;11.60;;
7971;SDS011;4031;49.758;6.120;2023-09-30T01:36:42;19.97;;;8.17;;
7971;SDS011;4031;49.758;6.120;2023-09-30T01:39:11;27.10;;;9.17;;
7971;SDS011;4031;49.758;6.120;2023-09-30T01:41:38;43.73;;;12.17;;
7971;SDS011;4031;49.758;6.120;2023-09-30T01:44:05;28.70;;;8.93;;
7971;SDS011;4031;49.758;6.120;2023-09-30T01:46:31;37.17;;;9.43;;
7971;SDS011;4031;49.758;6.120;2023-09-30T01:48:57;40.63;;;11.27;;
7971;SDS011;4031;49.758;6.120;2023-09-30T01:51:23;73.53;;;15.27;;
7971;SDS011;4031;49.758;6.120;2023-09-30T01:53:49;51.50;;;12.87;;
7971;SDS011;4031;49.758;6.120;2023-09-30T01:56:15;44.07;;;10.40;;
7971;SDS011;4031;49.758;6.120;2023-09-30T01:58:41;36.60;;;9.97;;
7971;SDS011;4031;49.758;6.120;2023-09-30T02:01:07;151.13;;;18.83;;
7971;SDS011;4031;49.758;6.120;2023-09-30T02:03:34;98.07;;;16.47;;
7971;SDS011;4031;49.758;6.120;2023-09-30T02:05:59;94.73;;;14.67;;
7971;SDS011;4031;49.758;6.120;2023-09-30T02:08:25;74.90;;;12.70;;
7971;SDS011;4031;49.758;6.120;2023-09-30T02:10:51;47.90;;;10.50;;
7971;SDS011;4031;49.758;6.120;2023-09-30T02:13:17;85.17;;;12.07;;
7971;SDS011;4031;49.758;6.120;2023-09-30T02:15:43;97.90;;;17.57;;
7971;SDS011;4031;49.758;6.120;2023-09-30T02:18:09;116.20;;;16.90;;
7971;SDS011;4031;49.758;6.120;2023-09-30T02:20:39;110.07;;;18.37;;
7971;SDS011;4031;49.758;6.120;2023-09-30T02:23:05;59.97;;;11.50;;
7971;SDS011;4031;49.758;6.120;2023-09-30T02:25:35;78.47;;;12.93;;
7971;SDS011;4031;49.758;6.120;2023-09-30T02:28:04;61.13;;;9.17;;
7971;SDS011;4031;49.758;6.120;2023-09-30T02:30:33;60.00;;;9.63;;
7971;SDS011;4031;49.758;6.120;2023-09-30T02:32:59;69.47;;;12.40;;
7971;SDS011;4031;49.758;6.120;2023-09-30T02:35:25;81.27;;;14.53;;
7971;SDS011;4031;49.758;6.120;2023-09-30T02:37:51;103.27;;;14.90;;
7971;SDS011;4031;49.758;6.120;2023-09-30T02:40:17;88.87;;;13.63;;
7971;SDS011;4031;49.758;6.120;2023-09-30T02:42:44;92.30;;;14.60;;
7971;SDS011;4031;49.758;6.120;2023-09-30T02:45:11;53.67;;;10.43;;
7971;SDS011;4031;49.758;6.120;2023-09-30T02:47:38;80.37;;;14.60;;
7971;SDS011;4031;49.758;6.120;2023-09-30T02:50:04;69.57;;;13.07;;
7971;SDS011;4031;49.758;6.120;2023-09-30T02:52:38;51.87;;;10.37;;
7971;SDS011;4031;49.758;6.120;2023-09-30T02:55:06;76.07;;;13.70;;
7971;SDS011;4031;49.758;6.120;2023-09-30T02:57:34;48.13;;;10.40;;
7971;SDS011;4031;49.758;6.120;2023-09-30T03:00:01;73.40;;;14.77;;
7971;SDS011;4031;49.758;6.120;2023-09-30T03:02:39;62.30;;;13.33;;
7971;SDS011;4031;49.758;6.120;2023-09-30T03:05:05;65.67;;;12.90;;
7971;SDS011;4031;49.758;6.120;2023-09-30T03:07:32;53.37;;;10.13;;
7971;SDS011;4031;49.758;6.120;2023-09-30T03:09:58;41.73;;;10.23;;
7971;SDS011;4031;49.758;6.120;2023-09-30T03:12:25;57.57;;;9.90;;
7971;SDS011;4031;49.758;6.120;2023-09-30T03:14:51;83.43;;;12.13;;
7971;SDS011;4031;49.758;6.120;2023-09-30T03:17:17;57.03;;;11.13;;
7971;SDS011;4031;49.758;6.120;2023-09-30T03:19:44;65.97;;;11.40;;
7971;SDS011;4031;49.758;6.120;2023-09-30T03:22:10;45.83;;;10.00;;
7971;SDS011;4031;49.758;6.120;2023-09-30T03:24:37;64.80;;;11.20;;
7971;SDS011;4031;49.758;6.120;2023-09-30T03:27:06;56.33;;;11.13;;
7971;SDS011;4031;49.758;6.120;2023-09-30T03:29:32;63.30;;;11.67;;
7971;SDS011;4031;49.758;6.120;2023-09-30T03:32:01;52.43;;;10.80;;
7971;SDS011;4031;49.758;6.120;2023-09-30T03:34:27;57.33;;;10.50;;
7971;SDS011;4031;49.758;6.120;2023-09-30T03:36:53;24.63;;;8.70;;
7971;SDS011;4031;49.758;6.120;2023-09-30T03:39:20;83.53;;;12.50;;
7971;SDS011;4031;49.758;6.120;2023-09-30T03:41:51;51.97;;;11.60;;
7971;SDS011;4031;49.758;6.120;2023-09-30T03:44:19;38.37;;;11.03;;
7971;SDS011;4031;49.758;6.120;2023-09-30T03:46:45;45.70;;;10.97;;
7971;SDS011;4031;49.758;6.120;2023-09-30T03:49:11;35.60;;;9.90;;
7971;SDS011;4031;49.758;6.120;2023-09-30T03:51:37;48.60;;;11.50;;
7971;SDS011;4031;49.758;6.120;2023-09-30T03:54:02;45.17;;;11.53;;
7971;SDS011;4031;49.758;6.120;2023-09-30T03:56:28;86.77;;;16.37;;
7971;SDS011;4031;49.758;6.120;2023-09-30T03:58:54;39.23;;;11.13;;
7971;SDS011;4031;49.758;6.120;2023-09-30T04:01:20;69.13;;;11.40;;
7971;SDS011;4031;49.758;6.120;2023-09-30T04:03:45;68.80;;;13.53;;
7971;SDS011;4031;49.758;6.120;2023-09-30T04:06:11;63.93;;;12.90;;
7971;SDS011;4031;49.758;6.120;2023-09-30T04:08:37;75.87;;;14.50;;
7971;SDS011;4031;49.758;6.120;2023-09-30T04:11:03;61.93;;;12.50;;
7971;SDS011;4031;49.758;6.120;2023-09-30T04:13:29;50.37;;;10.30;;
7971;SDS011;4031;49.758;6.120;2023-09-30T04:15:55;65.17;;;13.93;;
7971;SDS011;4031;49.758;6.120;2023-09-30T04:18:23;47.73;;;11.43;;
7971;SDS011;4031;49.758;6.120;2023-09-30T04:20:51;78.40;;;14.00;;
7971;SDS011;4031;49.758;6.120;2023-09-30T04:23:17;56.53;;;10.40;;
7971;SDS011;4031;49.758;6.120;2023-09-30T04:25:45;22.90;;;10.03;;
7971;SDS011;4031;49.758;6.120;2023-09-30T04:28:11;48.53;;;9.10;;
7971;SDS011;4031;49.758;6.120;2023-09-30T04:30:38;27.53;;;7.90;;
7971;SDS011;4031;49.758;6.120;2023-09-30T04:33:05;27.23;;;6.70;;
7971;SDS011;4031;49.758;6.120;2023-09-30T04:35:32;19.20;;;5.73;;
7971;SDS011;4031;49.758;6.120;2023-09-30T04:38:00;34.73;;;6.87;;
7971;SDS011;4031;49.758;6.120;2023-09-30T04:40:26;66.27;;;12.03;;
7971;SDS011;4031;49.758;6.120;2023-09-30T04:42:52;47.67;;;9.70;;
7971;SDS011;4031;49.758;6.120;2023-09-30T04:45:24;74.07;;;11.07;;
7971;SDS011;4031;49.758;6.120;2023-09-30T04:47:51;59.77;;;10.47;;
7971;SDS011;4031;49.758;6.120;2023-09-30T04:50:22;71.23;;;11.37;;
7971;SDS011;4031;49.758;6.120;2023-09-30T04:52:49;36.97;;;8.10;;
7971;SDS011;4031;49.758;6.120;2023-09-30T04:55:16;19.27;;;5.50;;
7971;SDS011;4031;49.758;6.120;2023-09-30T04:57:43;15.97;;;4.40;;
7971;SDS011;4031;49.758;6.120;2023-09-30T05:00:14;28.07;;;7.30;;
7971;SDS011;4031;49.758;6.120;2023-09-30T05:02:43;39.50;;;8.13;;
7971;SDS011;4031;49.758;6.120;2023-09-30T05:05:12;63.53;;;9.87;;
7971;SDS011;4031;49.758;6.120;2023-09-30T05:07:39;38.03;;;8.50;;
7971;SDS011;4031;49.758;6.120;2023-09-30T05:10:06;24.90;;;7.73;;
7971;SDS011;4031;49.758;6.120;2023-09-30T05:12:35;35.60;;;8.77;;
7971;SDS011;4031;49.758;6.120;2023-09-30T05:15:01;54.70;;;8.37;;
7971;SDS011;4031;49.758;6.120;2023-09-30T05:17:28;37.57;;;9.17;;
7971;SDS011;4031;49.758;6.120;2023-09-30T05:19:55;72.03;;;12.10;;
7971;SDS011;4031;49.758;6.120;2023-09-30T05:22:22;46.63;;;9.43;;
7971;SDS011;4031;49.758;6.120;2023-09-30T05:24:52;45.43;;;10.37;;
7971;SDS011;4031;49.758;6.120;2023-09-30T05:27:18;50.67;;;11.00;;
7971;SDS011;4031;49.758;6.120;2023-09-30T05:29:45;37.20;;;9.50;;
7971;SDS011;4031;49.758;6.120;2023-09-30T05:32:11;65.60;;;10.87;;
7971;SDS011;4031;49.758;6.120;2023-09-30T05:34:37;40.77;;;7.67;;
7971;SDS011;4031;49.758;6.120;2023-09-30T05:37:04;64.97;;;12.17;;
7971;SDS011;4031;49.758;6.120;2023-09-30T05:39:29;28.07;;;7.30;;
7971;SDS011;4031;49.758;6.120;2023-09-30T05:41:56;57.67;;;11.93;;
7971;SDS011;4031;49.758;6.120;2023-09-30T05:44:23;33.10;;;8.40;;
7971;SDS011;4031;49.758;6.120;2023-09-30T05:46:51;65.30;;;10.70;;
7971;SDS011;4031;49.758;6.120;2023-09-30T05:49:16;40.17;;;9.13;;
7971;SDS011;4031;49.758;6.120;2023-09-30T05:51:44;22.00;;;6.80;;
7971;SDS011;4031;49.758;6.120;2023-09-30T05:54:11;85.87;;;11.57;;
7971;SDS011;4031;49.758;6.120;2023-09-30T05:56:37;75.07;;;11.53;;
7971;SDS011;4031;49.758;6.120;2023-09-30T05:59:04;81.63;;;13.80;;
7971;SDS011;4031;49.758;6.120;2023-09-30T06:01:31;69.90;;;12.63;;
7971;SDS011;4031;49.758;6.120;2023-09-30T06:03:58;56.53;;;10.30;;
7971;SDS011;4031;49.758;6.120;2023-09-30T06:06:25;124.13;;;14.00;;
7971;SDS011;4031;49.758;6.120;2023-09-30T06:08:53;172.20;;;17.50;;
7971;SDS011;4031;49.758;6.120;2023-09-30T06:11:19;78.70;;;12.63;;
7971;SDS011;4031;49.758;6.120;2023-09-30T06:13:49;82.87;;;11.40;;
7971;SDS011;4031;49.758;6.120;2023-09-30T06:16:17;87.67;;;14.10;;
7971;SDS011;4031;49.758;6.120;2023-09-30T06:18:44;86.90;;;12.40;;
7971;SDS011;4031;49.758;6.120;2023-09-30T06:21:13;59.90;;;9.47;;
7971;SDS011;4031;49.758;6.120;2023-09-30T06:23:41;58.07;;;8.07;;
7971;SDS011;4031;49.758;6.120;2023-09-30T06:26:08;25.27;;;6.10;;
7971;SDS011;4031;49.758;6.120;2023-09-30T06:28:34;48.50;;;9.30;;
7971;SDS011;4031;49.758;6.120;2023-09-30T06:31:05;45.90;;;9.53;;
7971;SDS011;4031;49.758;6.120;2023-09-30T06:33:33;52.67;;;10.00;;
7971;SDS011;4031;49.758;6.120;2023-09-30T06:36:07;214.93;;;22.23;;
7971;SDS011;4031;49.758;6.120;2023-09-30T06:38:34;112.87;;;18.13;;
7971;SDS011;4031;49.758;6.120;2023-09-30T06:41:02;74.10;;;10.03;;
7971;SDS011;4031;49.758;6.120;2023-09-30T06:43:27;133.17;;;16.77;;
7971;SDS011;4031;49.758;6.120;2023-09-30T06:45:53;122.30;;;17.00;;
7971;SDS011;4031;49.758;6.120;2023-09-30T06:48:19;62.93;;;10.40;;
7971;SDS011;4031;49.758;6.120;2023-09-30T06:50:46;50.43;;;9.53;;
7971;SDS011;4031;49.758;6.120;2023-09-30T06:53:14;50.53;;;8.23;;
7971;SDS011;4031;49.758;6.120;2023-09-30T06:55:41;70.77;;;11.00;;
7971;SDS011;4031;49.758;6.120;2023-09-30T06:58:10;43.47;;;9.73;;
7971;SDS011;4031;49.758;6.120;2023-09-30T07:00:37;55.13;;;7.30;;
7971;SDS011;4031;49.758;6.120;2023-09-30T07:03:03;56.80;;;8.67;;
7971;SDS011;4031;49.758;6.120;2023-09-30T07:05:29;37.53;;;8.13;;
7971;SDS011;4031;49.758;6.120;2023-09-30T07:07:56;37.43;;;6.93;;
7971;SDS011;4031;49.758;6.120;2023-09-30T07:10:22;41.57;;;6.53;;
7971;SDS011;4031;49.758;6.120;2023-09-30T07:12:47;50.37;;;9.80;;
7971;SDS011;4031;49.758;6.120;2023-09-30T07:15:13;32.00;;;7.13;;
7971;SDS011;4031;49.758;6.120;2023-09-30T07:17:39;23.67;;;6.00;;
7971;SDS011;4031;49.758;6.120;2023-09-30T07:20:05;12.50;;;4.10;;
7971;SDS011;4031;49.758;6.120;2023-09-30T07:22:35;25.07;;;6.63;;
7971;SDS011;4031;49.758;6.120;2023-09-30T07:25:01;46.60;;;7.57;;
7971;SDS011;4031;49.758;6.120;2023-09-30T07:27:27;47.57;;;8.03;;
7971;SDS011;4031;49.758;6.120;2023-09-30T07:29:53;36.63;;;8.00;;
7971;SDS011;4031;49.758;6.120;2023-09-30T07:32:18;15.53;;;4.90;;
7971;SDS011;4031;49.758;6.120;2023-09-30T07:34:47;23.30;;;6.57;;
7971;SDS011;4031;49.758;6.120;2023-09-30T07:37:13;7.30;;;3.80;;
7971;SDS011;4031;49.758;6.120;2023-09-30T07:39:39;6.70;;;3.87;;
7971;SDS011;4031;49.758;6.120;2023-09-30T07:42:05;6.70;;;3.70;;
7971;SDS011;4031;49.758;6.120;2023-09-30T07:44:34;20.27;;;4.20;;
7971;SDS011;4031;49.758;6.120;2023-09-30T07:47:02;5.57;;;3.83;;
7971;SDS011;4031;49.758;6.120;2023-09-30T07:49:29;9.20;;;4.17;;
7971;SDS011;4031;49.758;6.120;2023-09-30T07:51:55;18.43;;;4.27;;
7971;SDS011;4031;49.758;6.120;2023-09-30T07:54:21;20.57;;;4.40;;
7971;SDS011;4031;49.758;6.120;2023-09-30T07:56:47;10.30;;;3.60;;
7971;SDS011;4031;49.758;6.120;2023-09-30T07:59:12;13.40;;;4.10;;
7971;SDS011;4031;49.758;6.120;2023-09-30T08:01:39;9.20;;;3.20;;
7971;SDS011;4031;49.758;6.120;2023-09-30T08:04:05;15.53;;;4.00;;
7971;SDS011;4031;49.758;6.120;2023-09-30T08:06:31;12.23;;;3.87;;
7971;SDS011;4031;49.758;6.120;2023-09-30T08:08:57;10.47;;;4.33;;
7971;SDS011;4031;49.758;6.120;2023-09-30T08:11:22;8.70;;;2.63;;
7971;SDS011;4031;49.758;6.120;2023-09-30T08:13:52;15.00;;;4.23;;
7971;SDS011;4031;49.758;6.120;2023-09-30T08:16:18;4.90;;;2.27;;
7971;SDS011;4031;49.758;6.120;2023-09-30T08:18:44;6.70;;;2.57;;
7971;SDS011;4031;49.758;6.120;2023-09-30T08:21:10;2.90;;;2.30;;
7971;SDS011;4031;49.758;6.120;2023-09-30T08:23:37;6.33;;;3.10;;
7971;SDS011;4031;49.758;6.120;2023-09-30T08:26:04;7.03;;;2.97;;
7971;SDS011;4031;49.758;6.120;2023-09-30T08:28:32;2.90;;;2.43;;
7971;SDS011;4031;49.758;6.120;2023-09-30T08:31:02;3.10;;;2.47;;
7971;SDS011;4031;49.758;6.120;2023-09-30T08:33:29;3.77;;;2.87;;
7971;SDS011;4031;49.758;6.120;2023-09-30T08:35:56;3.80;;;3.03;;
7971;SDS011;4031;49.758;6.120;2023-09-30T08:38:26;4.00;;;2.47;;
7971;SDS011;4031;49.758;6.120;2023-09-30T08:40:52;4.47;;;2.40;;
7971;SDS011;4031;49.758;6.120;2023-09-30T08:43:19;6.40;;;3.40;;
7971;SDS011;4031;49.758;6.120;2023-09-30T08:45:52;4.87;;;2.67;;
7971;SDS011;4031;49.758;6.120;2023-09-30T08:48:19;3.37;;;2.40;;
7971;SDS011;4031;49.758;6.120;2023-09-30T08:50:48;5.20;;;2.63;;
7971;SDS011;4031;49.758;6.120;2023-09-30T08:53:16;6.07;;;3.20;;
7971;SDS011;4031;49.758;6.120;2023-09-30T08:55:43;4.80;;;3.40;;
7971;SDS011;4031;49.758;6.120;2023-09-30T08:58:11;6.80;;;2.80;;
7971;SDS011;4031;49.758;6.120;2023-09-30T09:00:38;6.93;;;2.93;;
7971;SDS011;4031;49.758;6.120;2023-09-30T09:03:05;7.00;;;2.63;;
7971;SDS011;4031;49.758;6.120;2023-09-30T09:05:32;9.80;;;2.70;;
7971;SDS011;4031;49.758;6.120;2023-09-30T09:07:58;2.87;;;2.67;;
7971;SDS011;4031;49.758;6.120;2023-09-30T09:10:24;12.57;;;3.43;;
7971;SDS011;4031;49.758;6.120;2023-09-30T09:12:56;4.20;;;2.80;;
7971;SDS011;4031;49.758;6.120;2023-09-30T09:15:24;4.50;;;2.97;;
7971;SDS011;4031;49.758;6.120;2023-09-30T09:17:54;4.93;;;2.60;;
7971;SDS011;4031;49.758;6.120;2023-09-30T09:20:24;6.90;;;3.50;;
7971;SDS011;4031;49.758;6.120;2023-09-30T09:22:54;5.90;;;2.47;;
7971;SDS011;4031;49.758;6.120;2023-09-30T09:25:21;3.20;;;2.63;;
7971;SDS011;4031;49.758;6.120;2023-09-30T09:27:51;3.40;;;3.10;;
7971;SDS011;4031;49.758;6.120;2023-09-30T09:35:30;3.37;;;2.90;;
7971;SDS011;4031;49.758;6.120;2023-09-30T09:38:01;6.93;;;2.83;;
7971;SDS011;4031;49.758;6.120;2023-09-30T09:40:30;2.97;;;2.73;;
7971;SDS011;4031;49.758;6.120;2023-09-30T09:43:03;4.53;;;2.97;;
7971;SDS011;4031;49.758;6.120;2023-09-30T09:45:30;4.77;;;3.30;;
7971;SDS011;4031;49.758;6.120;2023-09-30T09:48:03;7.67;;;2.87;;
7971;SDS011;4031;49.758;6.120;2023-09-30T09:50:30;3.83;;;2.73;;
7971;SDS011;4031;49.758;6.120;2023-09-30T09:52:58;2.80;;;2.27;;
7971;SDS011;4031;49.758;6.120;2023-09-30T09:55:26;3.13;;;2.83;;
7971;SDS011;4031;49.758;6.120;2023-09-30T09:57:52;4.50;;;2.63;;
7971;SDS011;4031;49.758;6.120;2023-09-30T10:00:20;4.30;;;2.90;;
7971;SDS011;4031;49.758;6.120;2023-09-30T10:02:49;4.70;;;3.47;;
7971;SDS011;4031;49.758;6.120;2023-09-30T10:05:16;4.43;;;3.67;;
7971;SDS011;4031;49.758;6.120;2023-09-30T10:10:19;4.37;;;3.53;;
7971;SDS011;4031;49.758;6.120;2023-09-30T10:12:46;3.60;;;3.00;;
7971;SDS011;4031;49.758;6.120;2023-09-30T10:18:02;3.10;;;2.90;;
7971;SDS011;4031;49.758;6.120;2023-09-30T10:20:35;5.60;;;3.60;;
7971;SDS011;4031;49.758;6.120;2023-09-30T10:25:49;5.10;;;3.50;;
7971;SDS011;4031;49.758;6.120;2023-09-30T10:31:07;4.00;;;3.47;;
7971;SDS011;4031;49.758;6.120;2023-09-30T10:39:06;3.63;;;3.33;;
7971;SDS011;4031;49.758;6.120;2023-09-30T10:44:45;4.30;;;3.53;;
7971;SDS011;4031;49.758;6.120;2023-09-30T10:49:53;6.10;;;4.10;;
7971;SDS011;4031;49.758;6.120;2023-09-30T10:52:22;4.13;;;3.50;;
7971;SDS011;4031;49.758;6.120;2023-09-30T10:54:49;4.47;;;4.07;;
7971;SDS011;4031;49.758;6.120;2023-09-30T10:57:26;5.20;;;3.97;;
7971;SDS011;4031;49.758;6.120;2023-09-30T11:00:08;5.13;;;3.70;;
7971;SDS011;4031;49.758;6.120;2023-09-30T11:02:49;4.27;;;3.50;;
7971;SDS011;4031;49.758;6.120;2023-09-30T11:05:16;4.20;;;3.80;;
7971;SDS011;4031;49.758;6.120;2023-09-30T11:07:47;5.27;;;4.77;;
7971;SDS011;4031;49.758;6.120;2023-09-30T11:10:19;5.97;;;4.00;;
7971;SDS011;4031;49.758;6.120;2023-09-30T11:12:57;3.97;;;3.67;;
7971;SDS011;4031;49.758;6.120;2023-09-30T11:15:24;4.57;;;3.97;;
7971;SDS011;4031;49.758;6.120;2023-09-30T11:17:51;4.80;;;3.60;;
7971;SDS011;4031;49.758;6.120;2023-09-30T11:20:17;4.97;;;4.43;;
7971;SDS011;4031;49.758;6.120;2023-09-30T11:22:44;4.60;;;3.90;;
7971;SDS011;4031;49.758;6.120;2023-09-30T11:25:15;5.30;;;3.30;;
7971;SDS011;4031;49.758;6.120;2023-09-30T11:27:42;4.37;;;3.67;;
7971;SDS011;4031;49.758;6.120;2023-09-30T11:30:09;3.60;;;3.13;;
7971;SDS011;4031;49.758;6.120;2023-09-30T11:32:36;5.63;;;3.40;;
7971;SDS011;4031;49.758;6.120;2023-09-30T11:35:01;4.57;;;3.30;;
7971;SDS011;4031;49.758;6.120;2023-09-30T11:37:31;4.50;;;3.00;;
7971;SDS011;4031;49.758;6.120;2023-09-30T11:40:13;5.07;;;4.03;;
7971;SDS011;4031;49.758;6.120;2023-09-30T11:42:40;5.33;;;4.07;;
7971;SDS011;4031;49.758;6.120;2023-09-30T11:45:19;5.60;;;4.90;;
7971;SDS011;4031;49.758;6.120;2023-09-30T11:47:47;5.77;;;3.60;;
7971;SDS011;4031;49.758;6.120;2023-09-30T11:50:13;5.03;;;4.00;;
7971;SDS011;4031;49.758;6.120;2023-09-30T11:52:39;6.60;;;4.43;;
7971;SDS011;4031;49.758;6.120;2023-09-30T11:55:09;5.40;;;4.63;;
7971;SDS011;4031;49.758;6.120;2023-09-30T11:57:37;5.23;;;4.30;;
7971;SDS011;4031;49.758;6.120;2023-09-30T12:00:03;6.40;;;3.80;;
7971;SDS011;4031;49.758;6.120;2023-09-30T12:02:38;4.57;;;3.50;;
7971;SDS011;4031;49.758;6.120;2023-09-30T12:05:05;5.80;;;3.73;;
7971;SDS011;4031;49.758;6.120;2023-09-30T12:07:36;5.80;;;3.63;;
7971;SDS011;4031;49.758;6.120;2023-09-30T12:10:06;5.37;;;3.90;;
7971;SDS011;4031;49.758;6.120;2023-09-30T12:12:33;6.00;;;3.73;;
7971;SDS011;4031;49.758;6.120;2023-09-30T12:14:59;5.17;;;3.77;;
7971;SDS011;4031;49.758;6.120;2023-09-30T12:17:24;5.30;;;3.67;;
7971;SDS011;4031;49.758;6.120;2023-09-30T12:19:50;5.13;;;3.60;;
7971;SDS011;4031;49.758;6.120;2023-09-30T12:22:16;4.73;;;3.33;;
7971;SDS011;4031;49.758;6.120;2023-09-30T12:24:42;4.97;;;3.73;;
7971;SDS011;4031;49.758;6.120;2023-09-30T12:27:09;4.03;;;3.10;;
7971;SDS011;4031;49.758;6.120;2023-09-30T12:29:35;5.40;;;3.20;;
7971;SDS011;4031;49.758;6.120;2023-09-30T12:32:03;6.00;;;3.40;;
7971;SDS011;4031;49.758;6.120;2023-09-30T12:34:30;5.33;;;3.90;;
7971;SDS011;4031;49.758;6.120;2023-09-30T12:36:57;4.70;;;3.33;;
7971;SDS011;4031;49.758;6.120;2023-09-30T12:39:24;5.03;;;3.20;;
7971;SDS011;4031;49.758;6.120;2023-09-30T12:41:50;5.00;;;3.60;;
7971;SDS011;4031;49.758;6.120;2023-09-30T12:44:16;6.63;;;3.47;;
7971;SDS011;4031;49.758;6.120;2023-09-30T12:46:42;3.63;;;2.30;;
7971;SDS011;4031;49.758;6.120;2023-09-30T12:49:08;2.90;;;2.50;;
7971;SDS011;4031;49.758;6.120;2023-09-30T12:51:34;4.70;;;2.63;;
7971;SDS011;4031;49.758;6.120;2023-09-30T12:54:04;4.80;;;3.50;;
7971;SDS011;4031;49.758;6.120;2023-09-30T12:56:30;3.83;;;2.87;;
7971;SDS011;4031;49.758;6.120;2023-09-30T12:58:56;4.40;;;3.20;;
7971;SDS011;4031;49.758;6.120;2023-09-30T13:01:22;3.47;;;3.00;;
7971;SDS011;4031;49.758;6.120;2023-09-30T13:03:48;3.97;;;3.20;;
7971;SDS011;4031;49.758;6.120;2023-09-30T13:06:15;3.63;;;2.63;;
7971;SDS011;4031;49.758;6.120;2023-09-30T13:08:43;3.77;;;2.60;;
7971;SDS011;4031;49.758;6.120;2023-09-30T13:11:09;5.50;;;3.80;;
7971;SDS011;4031;49.758;6.120;2023-09-30T13:13:36;6.27;;;2.80;;
7971;SDS011;4031;49.758;6.120;2023-09-30T13:16:03;4.20;;;2.50;;
7971;SDS011;4031;49.758;6.120;2023-09-30T13:18:34;3.30;;;2.73;;
7971;SDS011;4031;49.758;6.120;2023-09-30T13:21:01;3.50;;;2.77;;
7971;SDS011;4031;49.758;6.120;2023-09-30T13:23:26;4.60;;;2.80;;
7971;SDS011;4031;49.758;6.120;2023-09-30T13:25:52;3.40;;;2.87;;
7971;SDS011;4031;49.758;6.120;2023-09-30T13:28:18;4.13;;;2.93;;
7971;SDS011;4031;49.758;6.120;2023-09-30T13:30:44;2.50;;;2.30;;
7971;SDS011;4031;49.758;6.120;2023-09-30T13:33:11;5.33;;;2.60;;
7971;SDS011;4031;49.758;6.120;2023-09-30T13:35:37;3.87;;;2.70;;
7971;SDS011;4031;49.758;6.120;2023-09-30T13:38:03;2.80;;;2.37;;
7971;SDS011;4031;49.758;6.120;2023-09-30T13:40:29;5.80;;;2.70;;
7971;SDS011;4031;49.758;6.120;2023-09-30T13:42:55;3.10;;;2.30;;
7971;SDS011;4031;49.758;6.120;2023-09-30T13:45:22;3.33;;;2.10;;
7971;SDS011;4031;49.758;6.120;2023-09-30T13:47:48;3.00;;;2.13;;
7971;SDS011;4031;49.758;6.120;2023-09-30T13:50:13;3.10;;;2.23;;
7971;SDS011;4031;49.758;6.120;2023-09-30T13:52:39;3.40;;;1.90;;
7971;SDS011;4031;49.758;6.120;2023-09-30T13:55:05;4.10;;;2.40;;
7971;SDS011;4031;49.758;6.120;2023-09-30T13:57:31;4.17;;;2.10;;
7971;SDS011;4031;49.758;6.120;2023-09-30T13:59:57;3.10;;;2.00;;
7971;SDS011;4031;49.758;6.120;2023-09-30T14:02:23;4.40;;;2.03;;
7971;SDS011;4031;49.758;6.120;2023-09-30T14:04:49;2.13;;;1.60;;
7971;SDS011;4031;49.758;6.120;2023-09-30T14:07:14;3.50;;;2.20;;
7971;SDS011;4031;49.758;6.120;2023-09-30T14:09:43;2.50;;;1.70;;
7971;SDS011;4031;49.758;6.120;2023-09-30T14:12:09;2.70;;;2.10;;
7971;SDS011;4031;49.758;6.120;2023-09-30T14:14:35;3.47;;;2.60;;
7971;SDS011;4031;49.758;6.120;2023-09-30T14:17:01;2.77;;;2.03;;
7971;SDS011;4031;49.758;6.120;2023-09-30T14:19:32;3.97;;;2.00;;
7971;SDS011;4031;49.758;6.120;2023-09-30T14:21:59;3.60;;;2.00;;
7971;SDS011;4031;49.758;6.120;2023-09-30T14:24:25;3.33;;;2.30;;
7971;SDS011;4031;49.758;6.120;2023-09-30T14:26:51;3.97;;;2.07;;
7971;SDS011;4031;49.758;6.120;2023-09-30T14:29:16;2.77;;;1.93;;
7971;SDS011;4031;49.758;6.120;2023-09-30T14:31:42;3.07;;;2.20;;
7971;SDS011;4031;49.758;6.120;2023-09-30T14:34:08;2.90;;;1.97;;
7971;SDS011;4031;49.758;6.120;2023-09-30T14:36:34;2.40;;;2.20;;
7971;SDS011;4031;49.758;6.120;2023-09-30T14:39:00;4.03;;;2.03;;
7971;SDS011;4031;49.758;6.120;2023-09-30T14:41:26;2.90;;;2.07;;
7971;SDS011;4031;49.758;6.120;2023-09-30T14:43:51;2.83;;;1.70;;
7971;SDS011;4031;49.758;6.120;2023-09-30T14:46:17;2.47;;;2.13;;
7971;SDS011;4031;49.758;6.120;2023-09-30T14:48:43;3.77;;;2.13;;
7971;SDS011;4031;49.758;6.120;2023-09-30T14:51:08;2.30;;;1.93;;
7971;SDS011;4031;49.758;6.120;2023-09-30T14:53:34;4.40;;;2.63;;
7971;SDS011;4031;49.758;6.120;2023-09-30T14:56:00;3.43;;;2.40;;
7971;SDS011;4031;49.758;6.120;2023-09-30T14:58:26;2.67;;;2.10;;
7971;SDS011;4031;49.758;6.120;2023-09-30T15:00:51;3.13;;;2.83;;
7971;SDS011;4031;49.758;6.120;2023-09-30T15:03:18;5.53;;;3.00;;
7971;SDS011;4031;49.758;6.120;2023-09-30T15:05:46;3.07;;;2.17;;
7971;SDS011;4031;49.758;6.120;2023-09-30T15:08:14;3.00;;;2.10;;
7971;SDS011;4031;49.758;6.120;2023-09-30T15:10:40;5.10;;;2.43;;
7971;SDS011;4031;49.758;6.120;2023-09-30T15:13:06;3.80;;;2.90;;
7971;SDS011;4031;49.758;6.120;2023-09-30T15:15:36;4.60;;;1.80;;
7971;SDS011;4031;49.758;6.120;2023-09-30T15:18:02;2.90;;;2.40;;
7971;SDS011;4031;49.758;6.120;2023-09-30T15:20:29;3.30;;;2.37;;
7971;SDS011;4031;49.758;6.120;2023-09-30T15:22:55;2.60;;;2.00;;
7971;SDS011;4031;49.758;6.120;2023-09-30T15:25:21;4.77;;;2.73;;
7971;SDS011;4031;49.758;6.120;2023-09-30T15:27:46;4.33;;;2.83;;
7971;SDS011;4031;49.758;6.120;2023-09-30T15:30:12;6.00;;;2.60;;